sensor_id;sensor_type;location;lat;lon;timestamp;pressure;altitude;pressure_sealevel;temperature;humidity
70011;BME280;59543;37.950;-122.338;2023-05-06T00:01:31;101661.63;;;15.52;65.56
70011;BME280;59543;37.950;-122.338;2023-05-06T00:03:58;101650.84;;;15.60;65.34
70011;BME280;59543;37.950;-122.338;2023-05-06T00:06:24;101656.16;;;15.44;65.63
70011;BME280;59543;37.950;-122.338;2023-05-06T00:08:52;101656.22;;;15.34;65.73
70011;BME280;59543;37.950;-122.338;2023-05-06T00:11:18;101666.13;;;15.17;67.13
70011;BME280;59543;37.950;-122.338;2023-05-06T00:13:44;101672.06;;;15.21;66.96
70011;BME280;59543;37.950;-122.338;2023-05-06T00:16:10;101671.69;;;14.98;69.40
70011;BME280;59543;37.950;-122.338;2023-05-06T00:18:36;101669.16;;;14.96;70.06
70011;BME280;59543;37.950;-122.338;2023-05-06T00:21:03;101672.88;;;14.95;70.75
70011;BME280;59543;37.950;-122.338;2023-05-06T00:23:29;101673.63;;;14.88;71.30
70011;BME280;59543;37.950;-122.338;2023-05-06T00:25:55;101677.72;;;14.74;72.59
70011;BME280;59543;37.950;-122.338;2023-05-06T00:28:21;101680.31;;;14.38;73.69
70011;BME280;59543;37.950;-122.338;2023-05-06T00:30:48;101684.50;;;14.32;74.39
70011;BME280;59543;37.950;-122.338;2023-05-06T00:33:14;101681.38;;;14.00;76.39
70011;BME280;59543;37.950;-122.338;2023-05-06T00:35:40;101677.66;;;14.01;76.02
70011;BME280;59543;37.950;-122.338;2023-05-06T00:38:09;101687.84;;;14.16;76.04
70011;BME280;59543;37.950;-122.338;2023-05-06T00:40:36;101681.44;;;13.80;75.97
70011;BME280;59543;37.950;-122.338;2023-05-06T00:43:02;101681.34;;;13.72;77.10
70011;BME280;59543;37.950;-122.338;2023-05-06T00:45:29;101678.94;;;13.69;78.31
70011;BME280;59543;37.950;-122.338;2023-05-06T00:47:56;101677.78;;;13.62;78.46
70011;BME280;59543;37.950;-122.338;2023-05-06T00:50:23;101684.06;;;13.23;81.39
70011;BME280;59543;37.950;-122.338;2023-05-06T00:52:50;101676.53;;;13.46;80.80
70011;BME280;59543;37.950;-122.338;2023-05-06T00:55:16;101680.97;;;13.28;81.34
70011;BME280;59543;37.950;-122.338;2023-05-06T00:57:43;101678.97;;;13.11;81.77
70011;BME280;59543;37.950;-122.338;2023-05-06T01:00:09;101682.66;;;13.19;81.78
70011;BME280;59543;37.950;-122.338;2023-05-06T01:02:36;101683.22;;;13.23;81.78
70011;BME280;59543;37.950;-122.338;2023-05-06T01:05:02;101675.69;;;12.97;82.93
70011;BME280;59543;37.950;-122.338;2023-05-06T01:10:31;101676.13;;;13.12;84.59
70011;BME280;59543;37.950;-122.338;2023-05-06T01:17:52;101670.41;;;13.05;85.31
70011;BME280;59543;37.950;-122.338;2023-05-06T01:20:20;101670.16;;;13.18;84.91
70011;BME280;59543;37.950;-122.338;2023-05-06T01:22:48;101668.00;;;13.02;86.36
70011;BME280;59543;37.950;-122.338;2023-05-06T01:25:18;101672.16;;;12.97;86.39
70011;BME280;59543;37.950;-122.338;2023-05-06T01:27:45;101669.00;;;13.01;86.95
70011;BME280;59543;37.950;-122.338;2023-05-06T01:30:13;101661.06;;;13.10;86.08
70011;BME280;59543;37.950;-122.338;2023-05-06T01:33:01;101666.31;;;12.82;85.67
70011;BME280;59543;37.950;-122.338;2023-05-06T01:38:15;101668.44;;;13.17;86.96
70011;BME280;59543;37.950;-122.338;2023-05-06T01:40:43;101670.72;;;13.02;84.28
70011;BME280;59543;37.950;-122.338;2023-05-06T01:43:11;101669.44;;;13.07;85.68
70011;BME280;59543;37.950;-122.338;2023-05-06T01:45:39;101673.00;;;13.07;85.06
70011;BME280;59543;37.950;-122.338;2023-05-06T01:48:08;101667.19;;;13.12;84.68
70011;BME280;59543;37.950;-122.338;2023-05-06T01:50:34;101667.88;;;13.14;84.66
70011;BME280;59543;37.950;-122.338;2023-05-06T01:53:04;101666.72;;;13.16;83.44
70011;BME280;59543;37.950;-122.338;2023-05-06T01:55:31;101672.72;;;13.00;84.88
70011;BME280;59543;37.950;-122.338;2023-05-06T01:57:57;101673.41;;;13.02;84.39
70011;BME280;59543;37.950;-122.338;2023-05-06T02:00:24;101674.13;;;13.04;84.45
70011;BME280;59543;37.950;-122.338;2023-05-06T02:02:50;101671.00;;;12.99;83.71
70011;BME280;59543;37.950;-122.338;2023-05-06T02:05:17;101672.28;;;12.95;83.81
70011;BME280;59543;37.950;-122.338;2023-05-06T02:07:43;101672.28;;;12.86;85.84
70011;BME280;59543;37.950;-122.338;2023-05-06T02:10:09;101673.41;;;12.73;87.14
70011;BME280;59543;37.950;-122.338;2023-05-06T02:12:36;101667.28;;;12.81;86.23
70011;BME280;59543;37.950;-122.338;2023-05-06T02:15:02;101673.13;;;12.76;86.09
70011;BME280;59543;37.950;-122.338;2023-05-06T02:17:28;101671.00;;;12.90;85.46
70011;BME280;59543;37.950;-122.338;2023-05-06T02:19:55;101670.56;;;12.75;85.36
70011;BME280;59543;37.950;-122.338;2023-05-06T02:22:21;101676.00;;;12.85;83.50
70011;BME280;59543;37.950;-122.338;2023-05-06T02:24:47;101672.13;;;12.58;85.76
70011;BME280;59543;37.950;-122.338;2023-05-06T02:27:13;101670.72;;;12.73;85.64
70011;BME280;59543;37.950;-122.338;2023-05-06T02:29:39;101675.53;;;12.70;85.57
70011;BME280;59543;37.950;-122.338;2023-05-06T02:32:06;101674.25;;;12.74;84.58
70011;BME280;59543;37.950;-122.338;2023-05-06T02:34:32;101674.66;;;12.59;85.41
70011;BME280;59543;37.950;-122.338;2023-05-06T02:36:58;101677.38;;;12.69;84.53
70011;BME280;59543;37.950;-122.338;2023-05-06T02:39:24;101676.53;;;12.69;84.61
70011;BME280;59543;37.950;-122.338;2023-05-06T02:41:51;101677.03;;;12.33;86.82
70011;BME280;59543;37.950;-122.338;2023-05-06T02:44:17;101689.41;;;12.46;85.63
70011;BME280;59543;37.950;-122.338;2023-05-06T02:46:43;101685.16;;;12.43;86.25
70011;BME280;59543;37.950;-122.338;2023-05-06T02:49:09;101688.41;;;12.47;85.39
70011;BME280;59543;37.950;-122.338;2023-05-06T02:51:35;101683.88;;;12.47;85.58
70011;BME280;59543;37.950;-122.338;2023-05-06T02:54:02;101678.44;;;12.38;86.53
70011;BME280;59543;37.950;-122.338;2023-05-06T02:56:28;101679.88;;;12.42;87.17
70011;BME280;59543;37.950;-122.338;2023-05-06T02:58:54;101683.03;;;12.47;86.58
70011;BME280;59543;37.950;-122.338;2023-05-06T03:01:21;101686.16;;;12.52;86.58
70011;BME280;59543;37.950;-122.338;2023-05-06T03:03:47;101681.97;;;12.28;88.91
70011;BME280;59543;37.950;-122.338;2023-05-06T03:06:13;101682.22;;;12.16;89.47
70011;BME280;59543;37.950;-122.338;2023-05-06T03:08:39;101677.53;;;12.18;89.37
70011;BME280;59543;37.950;-122.338;2023-05-06T03:11:06;101683.00;;;12.37;88.43
70011;BME280;59543;37.950;-122.338;2023-05-06T03:13:32;101682.88;;;12.48;87.40
70011;BME280;59543;37.950;-122.338;2023-05-06T03:15:58;101680.72;;;12.42;87.92
70011;BME280;59543;37.950;-122.338;2023-05-06T03:18:24;101685.91;;;12.15;88.26
70011;BME280;59543;37.950;-122.338;2023-05-06T03:20:50;101684.41;;;12.41;87.91
70011;BME280;59543;37.950;-122.338;2023-05-06T03:23:17;101681.97;;;12.28;89.26
70011;BME280;59543;37.950;-122.338;2023-05-06T03:25:43;101689.88;;;12.10;90.29
70011;BME280;59543;37.950;-122.338;2023-05-06T03:28:10;101686.91;;;12.13;90.39
70011;BME280;59543;37.950;-122.338;2023-05-06T03:30:37;101687.91;;;12.12;90.65
70011;BME280;59543;37.950;-122.338;2023-05-06T03:33:03;101680.00;;;12.00;91.28
70011;BME280;59543;37.950;-122.338;2023-05-06T03:35:29;101683.63;;;12.10;90.78
70011;BME280;59543;37.950;-122.338;2023-05-06T03:37:55;101689.16;;;12.18;90.57
70011;BME280;59543;37.950;-122.338;2023-05-06T03:40:22;101691.00;;;12.18;91.07
70011;BME280;59543;37.950;-122.338;2023-05-06T03:42:48;101695.97;;;12.12;91.08
70011;BME280;59543;37.950;-122.338;2023-05-06T03:45:14;101686.13;;;12.02;92.47
70011;BME280;59543;37.950;-122.338;2023-05-06T03:47:40;101692.13;;;12.15;93.09
70011;BME280;59543;37.950;-122.338;2023-05-06T03:50:07;101690.59;;;12.12;92.92
70011;BME280;59543;37.950;-122.338;2023-05-06T03:52:33;101692.31;;;12.23;92.59
70011;BME280;59543;37.950;-122.338;2023-05-06T03:54:59;101695.28;;;12.20;92.53
70011;BME280;59543;37.950;-122.338;2023-05-06T03:57:26;101698.28;;;12.27;92.10
70011;BME280;59543;37.950;-122.338;2023-05-06T03:59:52;101706.25;;;12.28;91.45
70011;BME280;59543;37.950;-122.338;2023-05-06T04:02:18;101703.25;;;12.22;92.10
70011;BME280;59543;37.950;-122.338;2023-05-06T04:04:44;101711.41;;;12.41;90.47
70011;BME280;59543;37.950;-122.338;2023-05-06T04:07:10;101710.28;;;12.44;89.68
70011;BME280;59543;37.950;-122.338;2023-05-06T04:09:37;101714.06;;;12.31;89.28
70011;BME280;59543;37.950;-122.338;2023-05-06T04:12:05;101710.34;;;12.23;90.07
70011;BME280;59543;37.950;-122.338;2023-05-06T04:14:32;101714.06;;;12.31;90.50
70011;BME280;59543;37.950;-122.338;2023-05-06T04:16:58;101715.16;;;12.19;90.00
70011;BME280;59543;37.950;-122.338;2023-05-06T04:19:24;101716.75;;;12.22;91.24
70011;BME280;59543;37.950;-122.338;2023-05-06T04:21:51;101713.97;;;12.12;91.69
70011;BME280;59543;37.950;-122.338;2023-05-06T04:24:17;101709.28;;;12.04;92.60
70011;BME280;59543;37.950;-122.338;2023-05-06T04:26:44;101706.31;;;12.07;91.75
70011;BME280;59543;37.950;-122.338;2023-05-06T04:29:10;101715.34;;;11.97;93.26
70011;BME280;59543;37.950;-122.338;2023-05-06T04:31:36;101724.72;;;12.02;92.91
70011;BME280;59543;37.950;-122.338;2023-05-06T04:34:03;101726.25;;;12.26;90.31
70011;BME280;59543;37.950;-122.338;2023-05-06T04:36:29;101724.47;;;12.05;92.60
70011;BME280;59543;37.950;-122.338;2023-05-06T04:38:58;101725.03;;;12.09;92.57
70011;BME280;59543;37.950;-122.338;2023-05-06T04:41:25;101718.72;;;11.89;93.76
70011;BME280;59543;37.950;-122.338;2023-05-06T04:43:53;101719.75;;;11.98;93.81
70011;BME280;59543;37.950;-122.338;2023-05-06T04:46:20;101722.31;;;11.99;93.76
70011;BME280;59543;37.950;-122.338;2023-05-06T04:48:48;101722.56;;;11.96;93.33
70011;BME280;59543;37.950;-122.338;2023-05-06T04:51:14;101731.31;;;12.09;92.51
70011;BME280;59543;37.950;-122.338;2023-05-06T04:53:40;101725.81;;;11.90;93.18
70011;BME280;59543;37.950;-122.338;2023-05-06T04:56:07;101732.47;;;11.86;93.27
70011;BME280;59543;37.950;-122.338;2023-05-06T04:58:33;101730.00;;;12.04;91.91
70011;BME280;59543;37.950;-122.338;2023-05-06T05:01:05;101733.81;;;12.01;91.97
70011;BME280;59543;37.950;-122.338;2023-05-06T05:03:31;101727.50;;;11.91;93.29
70011;BME280;59543;37.950;-122.338;2023-05-06T05:05:57;101730.19;;;11.91;92.20
70011;BME280;59543;37.950;-122.338;2023-05-06T05:08:23;101732.69;;;11.83;91.62
70011;BME280;59543;37.950;-122.338;2023-05-06T05:10:50;101728.13;;;11.95;90.67
70011;BME280;59543;37.950;-122.338;2023-05-06T05:13:16;101731.97;;;11.81;90.94
70011;BME280;59543;37.950;-122.338;2023-05-06T05:15:42;101732.50;;;11.75;90.63
70011;BME280;59543;37.950;-122.338;2023-05-06T05:18:08;101732.38;;;11.55;91.74
70011;BME280;59543;37.950;-122.338;2023-05-06T05:20:35;101732.13;;;11.58;91.86
70011;BME280;59543;37.950;-122.338;2023-05-06T05:23:01;101737.50;;;11.58;91.67
70011;BME280;59543;37.950;-122.338;2023-05-06T05:25:27;101727.91;;;11.65;91.32
70011;BME280;59543;37.950;-122.338;2023-05-06T05:27:53;101723.34;;;11.45;92.49
70011;BME280;59543;37.950;-122.338;2023-05-06T05:30:20;101726.78;;;11.47;93.21
70011;BME280;59543;37.950;-122.338;2023-05-06T05:32:46;101716.91;;;11.57;92.51
70011;BME280;59543;37.950;-122.338;2023-05-06T05:35:12;101720.63;;;11.56;92.87
70011;BME280;59543;37.950;-122.338;2023-05-06T05:37:38;101719.94;;;11.43;94.59
70011;BME280;59543;37.950;-122.338;2023-05-06T05:40:05;101719.81;;;11.44;93.70
70011;BME280;59543;37.950;-122.338;2023-05-06T05:42:32;101722.09;;;11.49;92.83
70011;BME280;59543;37.950;-122.338;2023-05-06T05:44:59;101725.78;;;11.48;93.37
70011;BME280;59543;37.950;-122.338;2023-05-06T05:47:25;101723.34;;;11.45;93.89
70011;BME280;59543;37.950;-122.338;2023-05-06T05:49:51;101719.50;;;11.38;93.54
70011;BME280;59543;37.950;-122.338;2023-05-06T05:52:17;101717.78;;;11.58;91.71
70011;BME280;59543;37.950;-122.338;2023-05-06T05:54:44;101717.50;;;11.40;92.65
70011;BME280;59543;37.950;-122.338;2023-05-06T05:57:10;101721.25;;;11.28;93.11
70011;BME280;59543;37.950;-122.338;2023-05-06T05:59:36;101722.50;;;11.24;93.27
70011;BME280;59543;37.950;-122.338;2023-05-06T06:02:02;101719.88;;;11.33;92.18
70011;BME280;59543;37.950;-122.338;2023-05-06T06:04:29;101720.09;;;11.41;91.72
70011;BME280;59543;37.950;-122.338;2023-05-06T06:06:56;101720.00;;;11.32;92.61
70011;BME280;59543;37.950;-122.338;2023-05-06T06:09:26;101715.59;;;11.31;92.58
70011;BME280;59543;37.950;-122.338;2023-05-06T06:11:53;101726.81;;;11.15;93.17
70011;BME280;59543;37.950;-122.338;2023-05-06T06:14:19;101723.50;;;11.23;93.17
70011;BME280;59543;37.950;-122.338;2023-05-06T06:16:46;101719.91;;;11.22;93.91
70011;BME280;59543;37.950;-122.338;2023-05-06T06:19:13;101720.44;;;11.16;94.39
70011;BME280;59543;37.950;-122.338;2023-05-06T06:21:40;101716.84;;;11.27;93.69
70011;BME280;59543;37.950;-122.338;2023-05-06T06:24:06;101714.53;;;11.22;93.88
70011;BME280;59543;37.950;-122.338;2023-05-06T06:26:32;101717.06;;;11.35;93.18
70011;BME280;59543;37.950;-122.338;2023-05-06T06:28:58;101712.38;;;11.37;92.31
70011;BME280;59543;37.950;-122.338;2023-05-06T06:31:25;101716.72;;;11.28;93.11
70011;BME280;59543;37.950;-122.338;2023-05-06T06:33:51;101708.03;;;11.25;93.42
70011;BME280;59543;37.950;-122.338;2023-05-06T06:36:17;101713.63;;;11.33;93.49
70011;BME280;59543;37.950;-122.338;2023-05-06T06:38:43;101710.19;;;11.31;92.95
70011;BME280;59543;37.950;-122.338;2023-05-06T06:41:10;101703.66;;;11.44;92.58
70011;BME280;59543;37.950;-122.338;2023-05-06T06:43:36;101713.84;;;11.41;92.76
70011;BME280;59543;37.950;-122.338;2023-05-06T06:46:02;101702.81;;;11.44;92.94
70011;BME280;59543;37.950;-122.338;2023-05-06T06:48:28;101703.06;;;11.41;93.00
70011;BME280;59543;37.950;-122.338;2023-05-06T06:50:55;101703.34;;;11.38;92.70
70011;BME280;59543;37.950;-122.338;2023-05-06T06:53:21;101702.53;;;11.47;92.67
70011;BME280;59543;37.950;-122.338;2023-05-06T06:55:47;101713.00;;;11.40;93.44
70011;BME280;59543;37.950;-122.338;2023-05-06T06:58:13;101707.97;;;11.36;94.18
70011;BME280;59543;37.950;-122.338;2023-05-06T07:00:39;101699.44;;;11.52;92.89
70011;BME280;59543;37.950;-122.338;2023-05-06T07:03:06;101697.69;;;11.41;93.63
70011;BME280;59543;37.950;-122.338;2023-05-06T07:05:35;101695.38;;;11.36;94.17
70011;BME280;59543;37.950;-122.338;2023-05-06T07:08:01;101696.22;;;11.37;94.35
70011;BME280;59543;37.950;-122.338;2023-05-06T07:10:28;101696.94;;;11.39;94.29
70011;BME280;59543;37.950;-122.338;2023-05-06T07:12:54;101693.00;;;11.43;93.77
70011;BME280;59543;37.950;-122.338;2023-05-06T07:15:20;101691.81;;;11.36;93.48
70011;BME280;59543;37.950;-122.338;2023-05-06T07:17:47;101692.63;;;11.48;92.93
70011;BME280;59543;37.950;-122.338;2023-05-06T07:20:13;101697.34;;;11.34;94.03
70011;BME280;59543;37.950;-122.338;2023-05-06T07:22:40;101692.41;;;11.39;93.54
70011;BME280;59543;37.950;-122.338;2023-05-06T07:25:07;101691.19;;;11.43;93.41
70011;BME280;59543;37.950;-122.338;2023-05-06T07:27:33;101695.69;;;11.43;93.42
70011;BME280;59543;37.950;-122.338;2023-05-06T07:29:59;101692.88;;;11.44;93.51
70011;BME280;59543;37.950;-122.338;2023-05-06T07:32:26;101693.00;;;11.43;93.28
70011;BME280;59543;37.950;-122.338;2023-05-06T07:34:52;101694.31;;;11.49;93.42
70011;BME280;59543;37.950;-122.338;2023-05-06T07:37:18;101698.84;;;11.48;93.28
70011;BME280;59543;37.950;-122.338;2023-05-06T07:39:44;101697.34;;;11.55;93.24
70011;BME280;59543;37.950;-122.338;2023-05-06T07:42:11;101693.09;;;11.53;93.21
70011;BME280;59543;37.950;-122.338;2023-05-06T07:44:38;101690.50;;;11.51;93.41
70011;BME280;59543;37.950;-122.338;2023-05-06T07:47:05;101690.91;;;11.47;93.88
70011;BME280;59543;37.950;-122.338;2023-05-06T07:49:31;101689.91;;;11.48;94.19
70011;BME280;59543;37.950;-122.338;2023-05-06T07:51:58;101684.16;;;11.52;94.57
70011;BME280;59543;37.950;-122.338;2023-05-06T07:54:25;101689.28;;;11.55;94.06
70011;BME280;59543;37.950;-122.338;2023-05-06T07:56:51;101687.59;;;11.64;93.29
70011;BME280;59543;37.950;-122.338;2023-05-06T07:59:17;101694.47;;;11.47;95.10
70011;BME280;59543;37.950;-122.338;2023-05-06T08:01:43;101688.47;;;11.64;93.42
70011;BME280;59543;37.950;-122.338;2023-05-06T08:04:10;101692.66;;;11.57;93.78
70011;BME280;59543;37.950;-122.338;2023-05-06T08:06:36;101693.66;;;11.56;93.75
70011;BME280;59543;37.950;-122.338;2023-05-06T08:09:02;101689.13;;;11.57;93.78
70011;BME280;59543;37.950;-122.338;2023-05-06T08:11:28;101688.28;;;11.56;93.66
70011;BME280;59543;37.950;-122.338;2023-05-06T08:13:55;101680.13;;;11.67;92.54
70011;BME280;59543;37.950;-122.338;2023-05-06T08:16:21;101690.63;;;11.71;92.37
70011;BME280;59543;37.950;-122.338;2023-05-06T08:18:47;101680.56;;;11.73;92.41
70011;BME280;59543;37.950;-122.338;2023-05-06T08:21:13;101679.84;;;11.71;91.88
70011;BME280;59543;37.950;-122.338;2023-05-06T08:23:40;101682.59;;;11.80;91.30
70011;BME280;59543;37.950;-122.338;2023-05-06T08:26:06;101678.59;;;11.75;91.05
70011;BME280;59543;37.950;-122.338;2023-05-06T08:28:32;101674.31;;;11.72;90.91
70011;BME280;59543;37.950;-122.338;2023-05-06T08:30:59;101668.94;;;11.72;91.35
70011;BME280;59543;37.950;-122.338;2023-05-06T08:33:25;101669.88;;;11.61;92.57
70011;BME280;59543;37.950;-122.338;2023-05-06T08:35:52;101667.63;;;11.66;92.02
70011;BME280;59543;37.950;-122.338;2023-05-06T08:38:22;101664.41;;;11.52;93.63
70011;BME280;59543;37.950;-122.338;2023-05-06T08:40:51;101664.59;;;11.60;93.39
70011;BME280;59543;37.950;-122.338;2023-05-06T08:43:20;101659.16;;;11.50;94.37
70011;BME280;59543;37.950;-122.338;2023-05-06T08:45:48;101657.25;;;11.62;93.90
70011;BME280;59543;37.950;-122.338;2023-05-06T08:48:15;101655.13;;;11.65;93.81
70011;BME280;59543;37.950;-122.338;2023-05-06T08:50:42;101652.81;;;11.61;93.87
70011;BME280;59543;37.950;-122.338;2023-05-06T08:53:11;101654.81;;;11.59;95.06
70011;BME280;59543;37.950;-122.338;2023-05-06T08:55:41;101651.00;;;11.61;94.64
70011;BME280;59543;37.950;-122.338;2023-05-06T08:58:10;101644.47;;;11.64;94.00
70011;BME280;59543;37.950;-122.338;2023-05-06T09:00:37;101650.47;;;11.67;93.63
70011;BME280;59543;37.950;-122.338;2023-05-06T09:03:04;101635.00;;;11.70;93.85
70011;BME280;59543;37.950;-122.338;2023-05-06T09:05:30;101632.38;;;11.79;92.99
70011;BME280;59543;37.950;-122.338;2023-05-06T09:07:56;101629.53;;;11.81;92.99
70011;BME280;59543;37.950;-122.338;2023-05-06T09:10:23;101625.50;;;11.65;93.89
70011;BME280;59543;37.950;-122.338;2023-05-06T09:12:52;101618.97;;;11.68;94.40
70011;BME280;59543;37.950;-122.338;2023-05-06T09:15:23;101624.38;;;11.68;93.77
70011;BME280;59543;37.950;-122.338;2023-05-06T09:17:50;101619.25;;;11.65;94.99
70011;BME280;59543;37.950;-122.338;2023-05-06T09:20:17;101619.56;;;11.72;94.62
70011;BME280;59543;37.950;-122.338;2023-05-06T09:22:43;101612.03;;;11.65;95.56
70011;BME280;59543;37.950;-122.338;2023-05-06T09:25:09;101621.25;;;11.73;95.11
70011;BME280;59543;37.950;-122.338;2023-05-06T09:27:36;101612.56;;;11.59;96.70
70011;BME280;59543;37.950;-122.338;2023-05-06T09:30:07;101612.03;;;11.65;95.58
70011;BME280;59543;37.950;-122.338;2023-05-06T09:32:34;101613.19;;;11.73;94.90
70011;BME280;59543;37.950;-122.338;2023-05-06T09:35:01;101610.22;;;11.76;94.38
70011;BME280;59543;37.950;-122.338;2023-05-06T09:37:27;101614.75;;;11.75;94.21
70011;BME280;59543;37.950;-122.338;2023-05-06T09:39:55;101606.72;;;11.85;92.83
70011;BME280;59543;37.950;-122.338;2023-05-06T09:42:23;101610.53;;;11.82;92.91
70011;BME280;59543;37.950;-122.338;2023-05-06T09:44:54;101612.13;;;11.85;92.25
70011;BME280;59543;37.950;-122.338;2023-05-06T09:47:26;101604.94;;;11.64;92.92
70011;BME280;59543;37.950;-122.338;2023-05-06T09:49:56;101609.88;;;11.59;93.67
70011;BME280;59543;37.950;-122.338;2023-05-06T09:52:26;101605.34;;;11.70;93.53
70011;BME280;59543;37.950;-122.338;2023-05-06T09:54:53;101600.97;;;11.68;93.24
70011;BME280;59543;37.950;-122.338;2023-05-06T09:57:20;101597.69;;;11.65;93.49
70011;BME280;59543;37.950;-122.338;2023-05-06T09:59:47;101596.94;;;11.53;94.00
70011;BME280;59543;37.950;-122.338;2023-05-06T10:02:14;101592.53;;;11.52;93.66
70011;BME280;59543;37.950;-122.338;2023-05-06T10:04:41;101596.78;;;11.55;93.43
70011;BME280;59543;37.950;-122.338;2023-05-06T10:07:08;101597.25;;;11.60;93.38
70011;BME280;59543;37.950;-122.338;2023-05-06T10:09:40;101592.44;;;11.63;92.81
70011;BME280;59543;37.950;-122.338;2023-05-06T10:12:09;101592.91;;;11.78;91.27
70011;BME280;59543;37.950;-122.338;2023-05-06T10:14:36;101597.16;;;11.71;91.88
70011;BME280;59543;37.950;-122.338;2023-05-06T10:17:07;101602.78;;;11.58;92.80
70011;BME280;59543;37.950;-122.338;2023-05-06T10:19:35;101608.44;;;11.55;93.03
70011;BME280;59543;37.950;-122.338;2023-05-06T10:22:41;101603.97;;;11.75;91.53
70011;BME280;59543;37.950;-122.338;2023-05-06T10:25:13;101600.88;;;11.80;90.71
70011;BME280;59543;37.950;-122.338;2023-05-06T10:27:44;101600.81;;;11.70;91.46
70011;BME280;59543;37.950;-122.338;2023-05-06T10:30:14;101596.69;;;11.66;92.06
70011;BME280;59543;37.950;-122.338;2023-05-06T10:32:45;101600.81;;;11.70;92.05
70011;BME280;59543;37.950;-122.338;2023-05-06T10:35:20;101593.47;;;11.72;91.87
70011;BME280;59543;37.950;-122.338;2023-05-06T10:37:49;101593.88;;;11.67;91.04
70011;BME280;59543;37.950;-122.338;2023-05-06T10:40:17;101590.66;;;11.83;90.31
70011;BME280;59543;37.950;-122.338;2023-05-06T10:42:43;101586.94;;;11.75;90.28
70011;BME280;59543;37.950;-122.338;2023-05-06T10:45:10;101585.63;;;11.90;89.12
70011;BME280;59543;37.950;-122.338;2023-05-06T10:50:24;101593.75;;;11.79;89.93
70011;BME280;59543;37.950;-122.338;2023-05-06T10:52:55;101583.25;;;11.76;89.87
70011;BME280;59543;37.950;-122.338;2023-05-06T10:55:33;101582.56;;;11.74;90.29
70011;BME280;59543;37.950;-122.338;2023-05-06T10:58:10;101589.25;;;11.79;89.95
70011;BME280;59543;37.950;-122.338;2023-05-06T11:00:37;101584.81;;;11.78;89.93
70011;BME280;59543;37.950;-122.338;2023-05-06T11:03:10;101580.25;;;11.69;90.81
70011;BME280;59543;37.950;-122.338;2023-05-06T11:08:15;101578.41;;;11.70;89.61
70011;BME280;59543;37.950;-122.338;2023-05-06T11:10:46;101574.31;;;11.75;89.45
70011;BME280;59543;37.950;-122.338;2023-05-06T11:13:28;101576.25;;;11.63;90.48
70011;BME280;59543;37.950;-122.338;2023-05-06T11:15:59;101574.31;;;11.75;90.45
70011;BME280;59543;37.950;-122.338;2023-05-06T11:26:08;101582.34;;;11.56;91.36
70011;BME280;59543;37.950;-122.338;2023-05-06T11:28:35;101576.13;;;11.65;90.77
70011;BME280;59543;37.950;-122.338;2023-05-06T11:31:02;101569.91;;;11.64;91.26
70011;BME280;59543;37.950;-122.338;2023-05-06T11:33:34;101575.28;;;11.64;92.02
70011;BME280;59543;37.950;-122.338;2023-05-06T11:36:05;101572.16;;;11.69;91.76
70011;BME280;59543;37.950;-122.338;2023-05-06T11:38:42;101569.03;;;11.64;92.27
70011;BME280;59543;37.950;-122.338;2023-05-06T11:41:08;101569.19;;;11.72;91.84
70011;BME280;59543;37.950;-122.338;2023-05-06T11:43:35;101568.16;;;11.63;93.41
70011;BME280;59543;37.950;-122.338;2023-05-06T11:46:01;101562.47;;;11.57;94.53
70011;BME280;59543;37.950;-122.338;2023-05-06T11:48:27;101561.09;;;11.62;94.33
70011;BME280;59543;37.950;-122.338;2023-05-06T11:50:54;101565.25;;;11.45;96.41
70011;BME280;59543;37.950;-122.338;2023-05-06T11:53:22;101556.31;;;11.45;97.12
70011;BME280;59543;37.950;-122.338;2023-05-06T11:55:50;101552.47;;;11.38;97.66
70011;BME280;59543;37.950;-122.338;2023-05-06T11:58:25;101563.28;;;11.48;97.49
70011;BME280;59543;37.950;-122.338;2023-05-06T12:00:59;101563.03;;;11.51;97.43
70011;BME280;59543;37.950;-122.338;2023-05-06T12:03:27;101564.16;;;11.58;96.94
70011;BME280;59543;37.950;-122.338;2023-05-06T12:05:54;101560.44;;;11.49;97.13
70011;BME280;59543;37.950;-122.338;2023-05-06T12:08:28;101561.06;;;11.53;97.41
70011;BME280;59543;37.950;-122.338;2023-05-06T12:11:04;101558.94;;;11.56;97.06
70011;BME280;59543;37.950;-122.338;2023-05-06T12:13:31;101560.91;;;11.54;96.83
70011;BME280;59543;37.950;-122.338;2023-05-06T12:16:01;101554.13;;;11.60;97.01
70011;BME280;59543;37.950;-122.338;2023-05-06T12:18:29;101553.00;;;11.62;96.31
70011;BME280;59543;37.950;-122.338;2023-05-06T12:20:56;101550.56;;;11.59;96.84
70011;BME280;59543;37.950;-122.338;2023-05-06T12:23:27;101549.56;;;11.51;97.35
70011;BME280;59543;37.950;-122.338;2023-05-06T12:26:04;101553.66;;;11.55;96.95
70011;BME280;59543;37.950;-122.338;2023-05-06T12:28:32;101552.84;;;11.64;96.47
70011;BME280;59543;37.950;-122.338;2023-05-06T12:30:59;101546.31;;;11.57;97.69
70011;BME280;59543;37.950;-122.338;2023-05-06T12:33:25;101537.84;;;11.61;97.36
70011;BME280;59543;37.950;-122.338;2023-05-06T12:35:51;101550.03;;;11.65;96.45
70011;BME280;59543;37.950;-122.338;2023-05-06T12:38:19;101542.94;;;11.64;96.78
70011;BME280;59543;37.950;-122.338;2023-05-06T12:40:52;101546.47;;;11.55;96.33
70011;BME280;59543;37.950;-122.338;2023-05-06T12:43:29;101543.66;;;11.66;95.82
70011;BME280;59543;37.950;-122.338;2023-05-06T12:46:03;101551.16;;;11.63;96.59